Time;durP1;ratioP1;P1;durP2;ratioP2;P2;SDS_P1;SDS_P2;PMS_P1;PMS_P2;Temp;Humidity;BMP_temperature;BMP_pressure;BME280_temperature;BME280_humidity;BME280_pressure;Samples;Min_cycle;Max_cycle;Signal;HPM_P1;HPM_P2
2021/08/03 02:46:46;;;;;;;7.63;3.13;;;18.00;96.70;;;;;;5211846;24;20099;-83
2021/08/03 02:49:17;;;;;;;4.40;3.05;;;18.00;96.80;;;;;;4804580;29;20027;-84
2021/08/03 02:51:44;;;;;;;6.70;3.25;;;18.00;96.70;;;;;;4817691;29;20038;-84
2021/08/03 02:54:31;;;;;;;4.30;2.92;;;18.00;96.50;;;;;;4809551;29;20036;-84
2021/08/03 02:57:03;;;;;;;5.68;3.28;;;18.10;96.50;;;;;;4796944;29;20026;-83
2021/08/03 02:59:35;;;;;;;4.55;3.00;;;18.00;96.80;;;;;;4804017;29;20234;-83
2021/08/03 03:02:06;;;;;;;10.38;4.03;;;18.00;96.60;;;;;;4812859;29;20337;-83
2021/08/03 03:04:47;;;;;;;4.95;3.28;;;18.00;96.60;;;;;;4806634;29;20075;-84
2021/08/03 03:07:27;;;;;;;6.35;3.55;;;18.00;96.70;;;;;;4798362;29;20050;-84
2021/08/03 03:09:55;;;;;;;5.90;2.90;;;18.00;97.00;;;;;;4818606;29;20031;-83
2021/08/03 03:12:25;;;;;;;3.20;2.53;;;18.00;96.90;;;;;;4802765;29;20029;-84
2021/08/03 03:14:55;;;;;;;5.95;3.42;;;17.90;96.80;;;;;;4796733;29;20033;-84
2021/08/03 03:17:23;;;;;;;7.18;3.45;;;18.00;96.80;;;;;;4802370;29;20276;-84
2021/08/03 03:19:53;;;;;;;4.90;3.30;;;17.90;96.70;;;;;;4808610;29;20317;-84
2021/08/03 03:22:19;;;;;;;6.72;2.78;;;17.90;96.60;;;;;;4802524;29;20026;-84
2021/08/03 03:24:46;;;;;;;9.18;3.85;;;18.00;96.60;;;;;;4796939;29;20038;-84
2021/08/03 03:27:15;;;;;;;3.95;3.03;;;17.90;96.70;;;;;;4802658;29;20391;-84
2021/08/03 03:29:42;;;;;;;6.85;3.30;;;17.90;96.70;;;;;;4797203;29;20097;-83
2021/08/03 03:32:10;;;;;;;6.93;3.60;;;17.80;96.80;;;;;;4816855;29;20034;-84
2021/08/03 03:34:41;;;;;;;4.50;3.28;;;17.80;97.00;;;;;;4790878;29;20031;-84
2021/08/03 03:37:07;;;;;;;8.30;4.55;;;17.80;96.90;;;;;;4811586;29;20039;-84
2021/08/03 03:39:38;;;;;;;12.00;4.20;;;17.80;97.20;;;;;;4796413;29;20027;-84
2021/08/03 03:42:06;;;;;;;6.40;4.18;;;17.80;97.40;;;;;;4818219;29;20030;-84
2021/08/03 03:44:34;;;;;;;13.75;4.35;;;17.80;97.40;;;;;;4807979;29;20030;-84
2021/08/03 03:47:26;;;;;;;4.57;3.63;;;17.80;97.60;;;;;;4783517;29;20298;-84
2021/08/03 03:49:58;;;;;;;4.85;3.70;;;17.90;97.60;;;;;;4799309;29;20037;-84
2021/08/03 03:52:25;;;;;;;6.85;3.60;;;17.90;97.50;;;;;;4804968;29;20263;-84
2021/08/03 03:54:54;;;;;;;5.00;4.07;;;17.90;97.50;;;;;;4790670;29;20030;-84
2021/08/03 03:57:21;;;;;;;7.28;3.65;;;18.00;97.30;;;;;;4820746;29;20027;-84
2021/08/03 03:59:50;;;;;;;6.38;3.55;;;18.00;97.50;;;;;;4790607;29;20035;-84
2021/08/03 04:02:19;;;;;;;4.95;3.40;;;18.10;97.50;;;;;;4790724;29;20034;-84
2021/08/03 04:04:46;;;;;;;5.55;3.58;;;18.10;97.40;;;;;;4790532;29;20035;-84
2021/08/03 04:07:12;;;;;;;4.07;3.50;;;18.20;97.50;;;;;;4804691;29;20376;-84
2021/08/03 04:09:41;;;;;;;6.57;3.35;;;18.20;97.70;;;;;;4789853;29;20031;-84
2021/08/03 04:12:12;;;;;;;3.65;3.03;;;18.40;97.60;;;;;;4821320;29;20027;-84
2021/08/03 04:14:43;;;;;;;5.15;3.53;;;18.40;97.60;;;;;;4805403;29;20226;-84
2021/08/03 04:17:10;;;;;;;4.47;3.38;;;18.50;97.60;;;;;;4804943;29;20037;-84
2021/08/03 04:19:40;;;;;;;9.02;3.47;;;18.70;97.60;;;;;;4790908;29;20333;-84
2021/08/03 04:22:06;;;;;;;6.22;3.35;;;18.80;97.20;;;;;;4820417;29;20056;-84
2021/08/03 04:24:32;;;;;;;14.82;3.70;;;18.90;97.30;;;;;;4803918;29;20053;-85
2021/08/03 04:26:57;;;;;;;6.43;3.50;;;19.00;97.20;;;;;;4806351;29;20027;-85
2021/08/03 04:29:23;;;;;;;3.92;2.97;;;19.10;96.60;;;;;;4800596;29;20031;-84
2021/08/03 04:31:49;;;;;;;7.00;2.85;;;19.30;96.20;;;;;;4807360;29;20334;-85
2021/08/03 04:34:15;;;;;;;6.97;2.75;;;19.50;96.10;;;;;;4792859;29;20050;-84
2021/08/03 04:36:43;;;;;;;3.75;2.90;;;19.60;96.10;;;;;;4822832;29;20026;-84
2021/08/03 04:39:10;;;;;;;7.50;3.33;;;19.80;96.30;;;;;;4804667;29;20034;-84
2021/08/03 04:41:38;;;;;;;8.43;2.80;;;19.90;95.50;;;;;;4808060;29;20219;-83
2021/08/03 04:44:03;;;;;;;5.97;2.63;;;20.00;94.80;;;;;;4794155;29;20203;-83
2021/08/03 04:46:29;;;;;;;7.05;2.97;;;20.10;94.70;;;;;;4804661;29;20085;-84
2021/08/03 04:48:55;;;;;;;5.82;2.97;;;20.30;94.10;;;;;;4806010;29;20287;-84
2021/08/03 04:51:21;;;;;;;5.78;2.95;;;20.30;93.30;;;;;;4790606;29;20058;-84
2021/08/03 04:53:47;;;;;;;8.13;3.40;;;20.30;93.20;;;;;;4790971;29;20022;-84
2021/08/03 04:56:12;;;;;;;6.30;3.97;;;20.30;92.80;;;;;;4820507;29;20031;-84
2021/08/03 04:58:41;;;;;;;9.25;2.78;;;20.30;92.90;;;;;;4807849;29;20063;-84
2021/08/03 05:01:07;;;;;;;7.53;3.47;;;20.30;92.80;;;;;;4823249;29;20037;-84
2021/08/03 05:03:34;;;;;;;12.25;3.13;;;20.40;92.80;;;;;;4805397;29;20027;-84
2021/08/03 05:05:59;;;;;;;11.40;3.27;;;20.40;92.60;;;;;;4807245;29;20041;-83
2021/08/03 05:08:25;;;;;;;4.95;3.00;;;20.50;92.60;;;;;;4806892;29;20030;-84
2021/08/03 05:10:51;;;;;;;10.75;3.45;;;20.50;92.30;;;;;;4807477;29;20027;-83
2021/08/03 05:13:17;;;;;;;12.45;3.58;;;20.60;92.30;;;;;;4791334;29;20055;-84
2021/08/03 05:15:43;;;;;;;8.20;3.17;;;20.60;92.00;;;;;;4794515;29;20065;-84
2021/08/03 05:18:09;;;;;;;8.15;3.65;;;20.70;91.90;;;;;;4811269;29;20337;-84
2021/08/03 05:20:35;;;;;;;13.82;3.33;;;20.80;91.70;;;;;;4807777;29;20030;-83
2021/08/03 05:23:00;;;;;;;9.02;3.00;;;20.90;91.40;;;;;;4801450;29;20033;-84
2021/08/03 05:25:27;;;;;;;12.77;3.42;;;21.00;91.50;;;;;;4805365;29;20058;-84
2021/08/03 05:27:53;;;;;;;9.60;3.85;;;21.20;91.20;;;;;;4784615;29;20152;-84
2021/08/03 05:30:18;;;;;;;20.00;4.28;;;21.30;90.50;;;;;;4807657;29;20054;-84
2021/08/03 05:32:44;;;;;;;14.93;3.70;;;21.40;90.10;;;;;;4807419;29;20060;-84
2021/08/03 05:35:10;;;;;;;9.85;3.38;;;21.40;90.20;;;;;;4792028;29;20346;-84
2021/08/03 05:37:36;;;;;;;13.50;3.80;;;21.40;90.50;;;;;;4807769;29;20031;-84
2021/08/03 05:40:08;;;;;;;8.43;3.13;;;21.40;90.20;;;;;;4798202;29;20146;-84
2021/08/03 05:42:37;;;;;;;15.43;3.17;;;21.50;90.40;;;;;;4793049;29;20035;-84
2021/08/03 05:45:03;;;;;;;12.65;3.97;;;21.60;89.20;;;;;;4802122;29;20233;-84
2021/08/03 05:47:30;;;;;;;7.27;2.90;;;21.70;87.90;;;;;;4825418;29;20050;-83
2021/08/03 05:49:56;;;;;;;12.95;3.05;;;21.90;87.10;;;;;;4791887;29;20125;-84
2021/08/03 05:52:22;;;;;;;5.15;2.80;;;22.00;87.10;;;;;;4796213;29;20106;-83
2021/08/03 05:54:47;;;;;;;17.67;3.10;;;22.20;86.40;;;;;;4806538;29;20022;-83
2021/08/03 05:57:13;;;;;;;7.57;2.55;;;22.30;85.20;;;;;;4791452;29;20059;-83
2021/08/03 05:59:39;;;;;;;13.85;3.35;;;22.50;85.50;;;;;;4806050;29;20030;-83
2021/08/03 06:02:05;;;;;;;12.90;2.53;;;22.60;82.10;;;;;;4805814;29;20054;-83
2021/08/03 06:04:31;;;;;;;8.98;2.58;;;22.90;82.20;;;;;;4788541;30;20035;-83
2021/08/03 06:06:57;;;;;;;5.85;2.80;;;23.20;80.50;;;;;;4805274;29;20083;-84
2021/08/03 06:09:27;;;;;;;7.50;3.10;;;23.20;80.50;;;;;;4804319;29;20027;-83
2021/08/03 06:11:55;;;;;;;9.88;2.50;;;23.50;78.90;;;;;;4791854;29;20035;-84
2021/08/03 06:14:37;;;;;;;10.38;2.42;;;24.00;77.60;;;;;;4805589;29;20022;-84
2021/08/03 06:17:07;;;;;;;7.43;2.90;;;24.50;75.30;;;;;;4809442;29;20027;-84
2021/08/03 06:19:47;;;;;;;6.30;2.50;;;24.60;72.10;;;;;;4806203;29;20039;-84
2021/08/03 06:22:13;;;;;;;6.00;2.35;;;24.70;71.80;;;;;;4806072;29;20038;-84
2021/08/03 06:24:41;;;;;;;4.13;2.20;;;24.80;70.60;;;;;;4790979;29;20035;-84
2021/08/03 06:27:09;;;;;;;8.52;2.00;;;24.90;70.20;;;;;;4797468;29;20087;-84
2021/08/03 06:29:37;;;;;;;9.82;2.95;;;25.10;69.20;;;;;;4793995;29;20027;-84
2021/08/03 06:32:04;;;;;;;16.20;2.58;;;25.30;70.60;;;;;;4802875;29;20027;-84
2021/08/03 06:34:43;;;;;;;9.23;2.15;;;25.50;70.80;;;;;;4806882;29;20034;-83
2021/08/03 06:37:10;;;;;;;4.93;2.38;;;25.70;70.70;;;;;;4805069;29;20030;-83
2021/08/03 06:39:37;;;;;;;8.90;2.05;;;25.70;68.90;;;;;;4793088;29;20030;-84
2021/08/03 06:42:32;;;;;;;5.55;2.13;;;26.00;69.40;;;;;;4805941;29;20110;-84
2021/08/03 06:45:03;;;;;;;3.00;2.33;;;26.10;68.80;;;;;;4726043;30;20107;-84
2021/08/03 06:47:43;;;;;;;7.47;2.17;;;26.20;66.70;;;;;;4718114;30;20061;-84
2021/08/03 06:50:11;;;;;;;8.68;2.10;;;26.10;67.10;;;;;;4704992;30;20037;-84
2021/08/03 06:52:37;;;;;;;4.25;2.33;;;25.80;67.30;;;;;;4698166;30;20020;-84
2021/08/03 06:55:05;;;;;;;8.82;2.33;;;25.50;67.00;;;;;;4722646;30;20025;-84
2021/08/03 06:57:33;;;;;;;7.07;2.13;;;25.30;67.10;;;;;;4726447;30;20063;-84
2021/08/03 07:00:05;;;;;;;8.75;2.22;;;25.20;67.80;;;;;;4714604;30;20037;-84
2021/08/03 07:02:40;;;;;;;9.15;3.38;;;25.20;68.90;;;;;;4703262;30;20615;-84
2021/08/03 07:05:16;;;;;;;7.95;2.17;;;25.50;68.10;;;;;;4749852;30;20067;-84
2021/08/03 07:07:44;;;;;;;7.75;2.17;;;25.70;68.40;;;;;;4730901;30;20036;-84
2021/08/03 07:10:11;;;;;;;11.27;2.72;;;25.70;67.40;;;;;;4744313;30;20045;-84
2021/08/03 07:12:40;;;;;;;10.70;2.28;;;25.60;67.40;;;;;;4748608;30;20036;-84
2021/08/03 07:15:07;;;;;;;5.45;1.95;;;25.60;66.00;;;;;;4732780;30;20201;-84
2021/08/03 07:17:37;;;;;;;7.13;2.20;;;25.60;67.60;;;;;;4716243;30;20071;-84
2021/08/03 07:20:03;;;;;;;8.82;2.70;;;25.50;67.70;;;;;;4744373;30;20144;-84
2021/08/03 07:22:31;;;;;;;11.60;2.72;;;25.30;68.40;;;;;;4801592;29;20126;-83
2021/08/03 07:24:57;;;;;;;11.60;2.60;;;25.20;68.40;;;;;;4802680;29;20031;-84
2021/08/03 07:27:26;;;;;;;6.72;2.22;;;25.20;69.00;;;;;;4799744;29;20034;-84
2021/08/03 07:29:51;;;;;;;4.45;2.72;;;25.30;68.70;;;;;;4801353;29;20034;-83
2021/08/03 07:32:17;;;;;;;7.40;2.40;;;25.20;66.60;;;;;;4788704;29;20083;-84
2021/08/03 07:34:43;;;;;;;5.70;2.72;;;25.10;68.10;;;;;;4804697;29;20026;-83
2021/08/03 07:37:09;;;;;;;7.65;2.75;;;25.00;66.70;;;;;;4792455;29;20038;-83
2021/08/03 07:39:36;;;;;;;4.55;2.13;;;25.20;66.50;;;;;;4795585;29;20030;-83
2021/08/03 07:42:03;;;;;;;;;;;25.30;66.40;;;;;;4807355;29;20035;-84
2021/08/03 07:44:29;;;;;;;;;;;25.20;66.00;;;;;;4802558;29;19909;-83
2021/08/03 07:46:54;;;;;;;11.53;2.77;;;25.30;68.50;;;;;;4791930;29;19917;-83
2021/08/03 07:49:21;;;;;;;7.13;2.33;;;25.50;68.50;;;;;;4806999;29;20038;-83
2021/08/03 07:51:47;;;;;;;4.43;1.95;;;25.60;66.00;;;;;;4797794;29;20061;-84
2021/08/03 07:54:13;;;;;;;8.70;2.55;;;25.50;67.70;;;;;;4795522;29;20373;-85
2021/08/03 07:56:39;;;;;;;3.90;2.03;;;25.60;66.90;;;;;;4787910;29;20031;-85
2021/08/03 07:59:05;;;;;;;5.15;2.08;;;25.80;67.80;;;;;;4818048;29;20352;-84
2021/08/03 08:01:33;;;;;;;3.90;2.50;;;26.00;64.70;;;;;;4801049;29;20031;-85
2021/08/03 08:04:02;;;;;;;8.35;2.17;;;26.30;65.00;;;;;;4799011;29;20038;-84
2021/08/03 08:06:27;;;;;;;13.65;2.05;;;26.40;63.80;;;;;;4786979;29;20062;-85
2021/08/03 08:08:53;;;;;;;9.80;2.40;;;26.50;63.90;;;;;;4803470;29;20033;-84
2021/08/03 08:11:19;;;;;;;5.90;2.33;;;26.40;61.60;;;;;;4789502;29;20035;-84
2021/08/03 08:13:45;;;;;;;3.13;1.90;;;26.30;62.60;;;;;;4798679;29;20136;-84
2021/08/03 08:16:11;;;;;;;4.70;1.92;;;26.30;63.20;;;;;;4795585;29;20059;-84
2021/08/03 08:18:37;;;;;;;11.27;2.22;;;26.30;63.60;;;;;;4794892;29;20042;-84
2021/08/03 08:21:03;;;;;;;8.18;2.40;;;26.30;60.70;;;;;;4801824;29;20326;-84
2021/08/03 08:23:29;;;;;;;4.32;2.25;;;26.30;62.90;;;;;;4787628;29;20023;-84
2021/08/03 08:25:55;;;;;;;4.80;1.63;;;26.40;62.10;;;;;;4803154;29;20035;-84
2021/08/03 08:28:21;;;;;;;2.53;1.67;;;26.50;60.20;;;;;;4803779;29;20031;-83
2021/08/03 08:30:47;;;;;;;6.25;2.10;;;26.70;62.50;;;;;;4790385;29;20023;-83
2021/08/03 08:33:13;;;;;;;5.20;2.05;;;26.80;59.70;;;;;;4804103;29;20034;-83
2021/08/03 08:35:39;;;;;;;6.95;1.98;;;26.90;60.40;;;;;;4804028;29;20157;-85
2021/08/03 08:38:05;;;;;;;8.70;2.30;;;26.90;61.30;;;;;;4804477;29;20029;-83
2021/08/03 08:40:32;;;;;;;4.70;1.92;;;27.00;60.20;;;;;;4786023;29;20079;-80
2021/08/03 08:42:58;;;;;;;;;;;27.10;57.50;;;;;;4802946;29;20153;-82
2021/08/03 08:45:24;;;;;;;5.20;1.90;;;27.00;59.80;;;;;;4812663;29;19909;-79
2021/08/03 08:47:50;;;;;;;4.40;1.73;;;27.10;59.20;;;;;;4802980;29;20034;-78
2021/08/03 08:50:20;;;;;;;7.03;2.00;;;27.10;59.30;;;;;;4804075;29;20097;-79
2021/08/03 08:52:49;;;;;;;5.43;1.92;;;27.40;59.00;;;;;;4811872;29;20199;-79
2021/08/03 08:55:15;;;;;;;7.15;1.90;;;27.50;58.80;;;;;;4802323;29;20019;-78
2021/08/03 08:57:41;;;;;;;3.47;2.03;;;27.60;59.20;;;;;;4802470;29;20039;-80
2021/08/03 09:00:08;;;;;;;2.45;1.77;;;27.80;56.60;;;;;;4804888;29;20238;-81
2021/08/03 09:02:34;;;;;;;3.20;1.58;;;27.80;56.30;;;;;;4800415;29;20030;-81
2021/08/03 09:05:03;;;;;;;2.37;1.20;;;27.90;56.50;;;;;;4805490;29;20056;-80
2021/08/03 09:07:30;;;;;;;7.68;2.35;;;28.00;57.00;;;;;;4805636;29;20034;-84
2021/08/03 09:09:56;;;;;;;9.55;3.67;;;28.10;56.30;;;;;;4819095;29;20023;-82
2021/08/03 09:12:34;;;;;;;7.13;2.73;;;28.20;56.20;;;;;;4797951;30;20031;-81
2021/08/03 09:15:00;;;;;;;11.30;3.78;;;28.40;56.90;;;;;;4792298;29;20027;-81
2021/08/03 09:17:28;;;;;;;8.47;2.10;;;28.50;55.90;;;;;;4806820;29;20317;-80
2021/08/03 09:19:53;;;;;;;10.32;2.13;;;28.60;54.20;;;;;;4824759;29;20042;-80
2021/08/03 09:22:23;;;;;;;10.50;2.20;;;28.50;56.20;;;;;;4801011;29;20065;-80
2021/08/03 09:24:52;;;;;;;5.05;1.90;;;28.20;53.70;;;;;;4806764;29;20410;-80
2021/08/03 09:27:33;;;;;;;6.57;2.22;;;28.10;55.90;;;;;;4807370;29;20047;-81
2021/08/03 09:29:59;;;;;;;5.15;2.08;;;28.10;54.10;;;;;;4790875;29;20039;-82
2021/08/03 09:32:32;;;;;;;3.67;1.80;;;28.00;55.30;;;;;;4825066;29;20022;-80
2021/08/03 09:35:09;;;;;;;7.03;1.85;;;28.20;53.20;;;;;;4806654;29;20071;-79
2021/08/03 09:37:35;;;;;;;;;;;28.20;54.00;;;;;;4795151;29;20041;-78
2021/08/03 09:40:04;;;;;;;7.40;1.88;;;28.20;54.20;;;;;;4794197;29;19905;-79
2021/08/03 09:42:30;;;;;;;2.90;1.50;;;28.20;54.50;;;;;;4806583;29;20030;-78
2021/08/03 09:45:03;;;;;;;4.80;2.05;;;28.30;54.20;;;;;;4805120;29;20055;-80
2021/08/03 09:47:31;;;;;;;3.65;1.60;;;28.30;53.10;;;;;;4803335;29;20050;-81
2021/08/03 09:49:59;;;;;;;2.45;1.60;;;28.50;53.60;;;;;;4788856;29;20076;-83
2021/08/03 09:52:31;;;;;;;7.05;1.30;;;28.40;53.00;;;;;;4788878;29;20062;-83
2021/08/03 09:55:32;;;;;;;4.85;1.50;;;28.20;50.60;;;;;;4803766;29;20358;-83
2021/08/03 09:58:08;;;;;;;7.40;1.77;;;27.90;51.40;;;;;;4732079;30;20072;-85
2021/08/03 10:00:36;;;;;;;2.63;1.70;;;27.90;53.00;;;;;;4746446;30;20040;-85
2021/08/03 10:03:04;;;;;;;6.55;1.80;;;27.70;52.90;;;;;;4761181;30;20041;-78
2021/08/03 10:05:30;;;;;;;2.53;1.30;;;27.70;53.10;;;;;;4763712;30;20032;-79
2021/08/03 10:07:57;;;;;;;3.80;1.73;;;27.60;53.70;;;;;;4766472;30;20207;-78
2021/08/03 10:10:23;;;;;;;1.38;1.27;;;27.90;53.40;;;;;;4765971;30;20032;-79
2021/08/03 10:12:49;;;;;;;2.78;1.52;;;28.10;55.00;;;;;;4765260;30;20107;-79
2021/08/03 10:15:14;;;;;;;2.75;1.67;;;28.20;51.00;;;;;;4751359;30;20073;-80
2021/08/03 10:17:41;;;;;;;3.97;1.85;;;28.30;49.40;;;;;;4766684;30;20277;-79
2021/08/03 10:20:12;;;;;;;2.28;1.70;;;27.90;51.00;;;;;;4766468;30;20123;-79
2021/08/03 10:22:45;;;;;;;7.65;2.15;;;27.60;54.80;;;;;;4765940;30;20331;-79
2021/08/03 10:25:14;;;;;;;3.15;1.98;;;27.70;53.80;;;;;;4750515;30;20043;-79
2021/08/03 10:27:49;;;;;;;3.47;1.98;;;28.00;52.50;;;;;;4763481;30;20048;-79
2021/08/03 10:30:26;;;;;;;7.30;3.30;;;28.30;51.90;;;;;;4765761;30;20040;-79
2021/08/03 10:32:53;;;;;;;2.97;1.60;;;28.60;52.10;;;;;;4780051;29;20057;-79
2021/08/03 10:35:37;;;;;;;9.85;2.22;;;28.80;54.10;;;;;;4804917;29;20023;-79
2021/08/03 10:38:02;;;;;;;5.65;1.80;;;28.90;55.00;;;;;;4830427;29;20042;-79
2021/08/03 10:41:00;;;;;;;4.40;2.33;;;29.30;52.80;;;;;;4806615;29;20079;-79
2021/08/03 10:43:47;;;;;;;6.63;2.25;;;29.40;53.40;;;;;;4748498;30;20045;-79
2021/08/03 10:46:16;;;;;;;4.47;2.00;;;29.60;51.00;;;;;;4750777;30;20051;-79
2021/08/03 10:48:43;;;;;;;18.30;2.63;;;29.60;52.50;;;;;;4765965;30;20320;-79
2021/08/03 10:51:17;;;;;;;;;;;29.50;53.30;;;;;;4751386;30;20056;-80
2021/08/03 10:54:04;;;;;;;5.13;1.48;;;29.30;53.10;;;;;;4747764;30;19951;-80
2021/08/03 10:56:49;;;;;;;;;;;29.50;53.90;;;;;;4766418;30;20036;-80
2021/08/03 10:59:30;;;;;;;3.60;2.00;;;29.50;52.20;;;;;;4751590;30;19910;-80
2021/08/03 11:01:57;;;;;;;3.53;2.00;;;29.60;50.70;;;;;;4733557;30;20371;-80
2021/08/03 11:04:41;;;;;;;6.68;2.00;;;29.50;50.40;;;;;;4763816;30;20033;-79
2021/08/03 11:07:34;;;;;;;3.13;1.70;;;29.50;50.10;;;;;;4762756;30;20052;-79
2021/08/03 11:10:14;;;;;;;3.60;1.70;;;29.50;51.30;;;;;;4765272;30;20060;-79
2021/08/03 11:12:44;;;;;;;2.92;1.70;;;29.40;50.60;;;;;;4752426;30;20051;-79
2021/08/03 11:15:22;;;;;;;2.33;1.58;;;29.60;53.00;;;;;;4750455;30;20043;-79
2021/08/03 11:18:01;;;;;;;3.22;1.50;;;29.90;50.60;;;;;;4751533;30;20072;-79
2021/08/03 11:20:36;;;;;;;2.78;1.48;;;30.00;51.90;;;;;;4805076;29;20046;-79
2021/08/03 11:23:30;;;;;;;3.35;1.40;;;30.10;49.80;;;;;;4805932;29;20034;-79
2021/08/03 11:26:03;;;;;;;5.30;2.05;;;30.30;49.90;;;;;;4811692;29;20034;-79
2021/08/03 11:28:29;;;;;;;4.53;1.45;;;30.20;50.50;;;;;;4814114;29;20035;-78
2021/08/03 11:30:55;;;;;;;4.90;1.67;;;30.30;50.60;;;;;;4805016;29;20022;-79
2021/08/03 11:33:21;;;;;;;4.70;1.67;;;30.20;48.00;;;;;;4804996;29;20027;-78
2021/08/03 11:35:48;;;;;;;3.33;1.30;;;30.20;51.40;;;;;;4804510;29;20037;-79
2021/08/03 11:38:15;;;;;;;2.10;1.65;;;30.30;49.70;;;;;;4816577;29;20026;-79
2021/08/03 11:40:43;;;;;;;4.53;1.42;;;30.30;49.40;;;;;;4789930;29;20050;-79
2021/08/03 11:43:09;;;;;;;3.40;1.40;;;30.10;49.70;;;;;;4803947;29;20022;-79
2021/08/03 11:45:37;;;;;;;4.87;1.37;;;29.90;48.50;;;;;;4805504;29;20031;-79
2021/08/03 11:48:05;;;;;;;2.35;1.40;;;29.80;48.80;;;;;;4803426;29;20230;-79
2021/08/03 11:50:34;;;;;;;3.47;1.27;;;29.80;50.90;;;;;;4802960;29;20083;-78
2021/08/03 11:53:09;;;;;;;6.40;1.58;;;29.80;48.90;;;;;;4809289;29;20054;-78
2021/08/03 11:55:36;;;;;;;5.33;1.67;;;30.10;48.40;;;;;;4814858;29;20023;-78
2021/08/03 11:58:03;;;;;;;;;;;30.40;48.20;;;;;;4803539;29;20276;-78
2021/08/03 12:00:29;;;;;;;2.80;1.50;;;30.40;46.20;;;;;;4803257;29;20231;-79
2021/08/03 12:02:57;;;;;;;4.40;1.40;;;30.50;47.40;;;;;;4812732;29;20030;-78
2021/08/03 12:05:26;;;;;;;3.05;1.50;;;30.70;49.10;;;;;;4812286;29;20030;-78
2021/08/03 12:07:58;;;;;;;2.38;1.27;;;31.00;47.60;;;;;;4812921;29;20039;-78
2021/08/03 12:10:27;;;;;;;25.05;5.68;;;31.40;46.90;;;;;;4829384;29;20023;-78
2021/08/03 12:12:53;;;;;;;7.47;1.73;;;31.20;45.10;;;;;;4802543;29;20031;-78
2021/08/03 12:15:21;;;;;;;4.77;1.97;;;31.10;45.80;;;;;;4795598;29;20102;-78
2021/08/03 12:17:49;;;;;;;4.78;1.70;;;30.80;47.40;;;;;;4802516;29;20058;-78
2021/08/03 12:20:32;;;;;;;4.35;1.48;;;30.30;48.40;;;;;;4802101;29;20075;-78
2021/08/03 12:23:37;;;;;;;4.88;1.50;;;29.90;48.00;;;;;;4816771;29;20072;-78
2021/08/03 12:26:19;;;;;;;3.15;1.60;;;29.50;49.60;;;;;;4754454;30;20072;-78
2021/08/03 12:28:53;;;;;;;4.55;1.33;;;29.50;48.00;;;;;;4773609;30;20378;-78
2021/08/03 12:31:30;;;;;;;4.07;1.52;;;29.30;50.00;;;;;;4776354;30;20027;-78
2021/08/03 12:34:17;;;;;;;3.33;1.42;;;29.30;49.10;;;;;;4780549;30;20354;-78
2021/08/03 12:36:53;;;;;;;1.73;1.17;;;29.50;49.20;;;;;;4775560;30;20071;-78
2021/08/03 12:39:28;;;;;;;3.33;1.52;;;29.60;48.90;;;;;;4780716;30;20035;-77
2021/08/03 12:44:51;;;;;;;2.03;1.30;;;29.70;49.80;;;;;;4782587;30;20051;-78
2021/08/03 12:47:19;;;;;;;3.47;1.40;;;29.60;49.20;;;;;;4778171;30;20052;-78
2021/08/03 12:49:48;;;;;;;3.17;1.55;;;29.70;50.00;;;;;;4779038;30;20054;-78
2021/08/03 12:52:15;;;;;;;1.20;1.10;;;29.90;48.50;;;;;;4785246;30;20108;-77
2021/08/03 12:54:55;;;;;;;1.70;1.10;;;30.00;47.50;;;;;;4786520;30;20091;-78
2021/08/03 12:57:23;;;;;;;2.03;1.15;;;30.20;49.30;;;;;;4786887;30;20071;-78
2021/08/03 12:59:50;;;;;;;4.03;1.30;;;30.10;45.30;;;;;;4777327;30;20027;-77
2021/08/03 13:02:16;;;;;;;;;;;29.90;46.30;;;;;;4799593;29;20236;-78
2021/08/03 13:04:43;;;;;;;7.07;1.35;;;29.70;45.90;;;;;;4790828;30;19928;-78
2021/08/03 13:07:09;;;;;;;7.15;1.88;;;29.50;46.60;;;;;;4806583;29;20023;-78
2021/08/03 13:09:36;;;;;;;3.08;1.33;;;29.20;46.80;;;;;;4802264;29;20043;-78
2021/08/03 13:12:04;;;;;;;3.95;1.60;;;29.30;47.10;;;;;;4788898;30;20027;-78
2021/08/03 13:14:29;;;;;;;5.50;1.63;;;29.30;46.70;;;;;;4781795;30;20028;-78
2021/08/03 13:16:58;;;;;;;1.97;1.30;;;29.50;46.90;;;;;;4771761;30;20035;-78
2021/08/03 13:19:26;;;;;;;2.83;1.02;;;29.70;46.80;;;;;;4797009;29;20096;-78
2021/08/03 13:21:53;;;;;;;6.25;1.50;;;29.70;46.70;;;;;;4790025;30;20027;-78
2021/08/03 13:24:19;;;;;;;2.30;1.10;;;29.70;46.70;;;;;;4790188;30;20322;-78
2021/08/03 13:26:45;;;;;;;1.50;1.10;;;29.80;45.50;;;;;;4805254;30;20042;-78
2021/08/03 13:29:11;;;;;;;3.33;1.33;;;29.90;46.10;;;;;;4789257;30;20100;-78
2021/08/03 13:31:36;;;;;;;2.53;1.48;;;30.10;47.20;;;;;;4775116;30;20592;-77
2021/08/03 13:34:02;;;;;;;3.70;1.63;;;30.10;45.80;;;;;;4786425;30;20034;-78
2021/08/03 13:36:28;;;;;;;8.43;2.00;;;30.10;46.80;;;;;;4783511;30;20027;-77
2021/08/03 13:38:54;;;;;;;4.30;1.27;;;30.10;48.10;;;;;;4796164;29;20184;-78
2021/08/03 13:41:20;;;;;;;8.23;1.70;;;30.40;47.60;;;;;;4788315;30;20046;-77
2021/08/03 13:43:45;;;;;;;38.07;4.27;;;30.50;46.40;;;;;;4804617;29;20027;-77
2021/08/03 13:46:11;;;;;;;3.73;1.40;;;30.50;46.30;;;;;;4796061;29;20068;-77
2021/08/03 13:48:37;;;;;;;5.30;1.80;;;30.40;47.20;;;;;;4802692;29;20027;-77
2021/08/03 13:51:03;;;;;;;6.43;1.53;;;30.20;46.60;;;;;;4790503;29;20037;-77
2021/08/03 13:53:28;;;;;;;3.47;1.40;;;30.20;47.40;;;;;;4805717;29;20022;-77
2021/08/03 13:55:54;;;;;;;3.67;1.13;;;30.30;47.60;;;;;;4806372;29;20030;-78
2021/08/03 13:58:20;;;;;;;2.50;1.30;;;30.30;47.40;;;;;;4803034;29;20019;-77
2021/08/03 14:00:45;;;;;;;5.07;1.30;;;30.30;48.20;;;;;;4804835;29;20034;-77
2021/08/03 14:03:11;;;;;;;1.70;0.90;;;30.30;49.20;;;;;;4812501;29;20031;-77
2021/08/03 14:05:37;;;;;;;6.63;1.20;;;30.10;47.40;;;;;;4811721;29;20023;-77
2021/08/03 14:08:03;;;;;;;2.43;1.33;;;29.90;46.90;;;;;;4806026;29;20091;-77
2021/08/03 14:10:29;;;;;;;8.63;1.73;;;29.80;47.70;;;;;;4805771;29;20034;-77
2021/08/03 14:12:54;;;;;;;1.30;1.20;;;29.70;47.10;;;;;;4806519;29;20094;-78
2021/08/03 14:15:20;;;;;;;2.33;1.20;;;29.80;47.40;;;;;;4791412;29;20034;-77
2021/08/03 14:17:48;;;;;;;6.03;1.00;;;30.00;48.00;;;;;;4808764;29;20030;-78
2021/08/03 14:20:14;;;;;;;1.30;1.20;;;30.30;47.20;;;;;;4789939;30;20027;-78
2021/08/03 14:22:40;;;;;;;6.85;1.33;;;30.40;47.70;;;;;;4804499;29;20034;-78
2021/08/03 14:25:06;;;;;;;6.30;1.10;;;30.40;46.60;;;;;;4806623;29;20292;-78
2021/08/03 14:27:32;;;;;;;1.88;1.40;;;30.30;47.80;;;;;;4806543;29;20058;-78
2021/08/03 14:29:58;;;;;;;5.20;1.43;;;30.10;47.60;;;;;;4803107;29;20031;-79
2021/08/03 14:32:23;;;;;;;3.08;1.40;;;30.10;47.60;;;;;;4802214;29;20033;-78
2021/08/03 14:34:49;;;;;;;1.80;1.13;;;30.10;48.80;;;;;;4793691;29;20023;-78
2021/08/03 14:37:15;;;;;;;4.00;1.42;;;30.30;48.60;;;;;;4805565;29;20075;-78
2021/08/03 14:39:41;;;;;;;2.08;1.13;;;30.30;47.80;;;;;;4811062;29;20031;-78
2021/08/03 14:42:07;;;;;;;4.33;1.43;;;30.30;46.50;;;;;;4813549;29;20035;-78
2021/08/03 14:44:33;;;;;;;3.30;1.40;;;30.00;46.50;;;;;;4825343;29;20045;-78
2021/08/03 14:46:59;;;;;;;2.13;1.10;;;29.80;47.40;;;;;;4811754;29;20042;-78
2021/08/03 14:49:24;;;;;;;20.53;3.10;;;29.60;48.20;;;;;;4806024;29;20038;-78
2021/08/03 14:51:50;;;;;;;59.07;6.90;;;29.70;47.90;;;;;;4805776;29;20027;-78
2021/08/03 14:54:17;;;;;;;9.70;2.33;;;29.80;47.60;;;;;;4813829;29;20018;-78
2021/08/03 14:56:43;;;;;;;9.93;1.42;;;29.70;48.70;;;;;;4826515;29;20030;-79
2021/08/03 14:59:09;;;;;;;4.87;1.70;;;29.80;48.40;;;;;;4830189;29;20050;-78
2021/08/03 15:01:35;;;;;;;4.53;1.40;;;29.80;48.80;;;;;;4807871;29;20043;-76
2021/08/03 15:04:00;;;;;;;1.23;1.13;;;29.80;50.20;;;;;;4806608;29;20030;-77
2021/08/03 15:06:26;;;;;;;1.20;1.00;;;29.90;48.70;;;;;;4806645;29;20031;-77
2021/08/03 15:08:52;;;;;;;4.53;1.30;;;30.00;48.50;;;;;;4789122;29;20045;-77
2021/08/03 15:11:19;;;;;;;6.57;1.40;;;30.10;46.50;;;;;;4820649;29;20038;-77
2021/08/03 15:13:46;;;;;;;4.65;1.20;;;30.00;46.20;;;;;;4804887;29;20056;-77
2021/08/03 15:16:14;;;;;;;5.38;0.95;;;29.80;47.40;;;;;;4814356;29;20094;-78
2021/08/03 15:18:40;;;;;;;3.33;1.60;;;29.60;47.40;;;;;;4804491;29;20110;-77
2021/08/03 15:21:06;;;;;;;1.90;1.03;;;29.60;48.40;;;;;;4803649;29;20047;-77
2021/08/03 15:23:32;;;;;;;4.90;1.40;;;29.50;48.00;;;;;;4809104;29;20038;-77
2021/08/03 15:25:58;;;;;;;21.90;2.53;;;29.40;48.60;;;;;;4820838;29;20027;-77
2021/08/03 15:28:23;;;;;;;4.87;1.30;;;29.40;48.80;;;;;;4825285;29;20022;-78
2021/08/03 15:30:49;;;;;;;2.83;1.20;;;29.50;48.40;;;;;;4825601;29;20322;-78
2021/08/03 15:33:15;;;;;;;1.90;1.23;;;29.40;48.60;;;;;;4821059;29;20030;-78
2021/08/03 15:35:41;;;;;;;3.08;1.30;;;29.20;48.20;;;;;;4803680;29;20050;-78
2021/08/03 15:38:06;;;;;;;2.20;1.13;;;29.00;48.80;;;;;;4822670;29;20027;-78
2021/08/03 15:40:33;;;;;;;2.43;1.33;;;28.90;49.60;;;;;;4809710;29;20026;-77
2021/08/03 15:42:59;;;;;;;3.13;1.00;;;28.60;50.20;;;;;;4826679;29;20022;-78
2021/08/03 15:45:25;;;;;;;2.33;1.07;;;28.40;50.00;;;;;;4808531;29;20318;-77